createdAt,value
2018-02-23T00:00:22.258Z,69.63
2018-02-23T00:02:49.818Z,69.18
2018-02-23T00:05:17.363Z,68.97
2018-02-23T00:07:47.844Z,68.86
2018-02-23T00:10:15.423Z,68.95
2018-02-23T00:12:43.170Z,68.68
2018-02-23T00:15:10.720Z,68.33
2018-02-23T00:17:38.294Z,68.29
2018-02-23T00:20:06.269Z,68.03
2018-02-23T00:22:42.145Z,68.14
2018-02-23T00:25:09.687Z,68.09
2018-02-23T00:27:37.278Z,68.25
2018-02-23T00:30:04.829Z,68.03
2018-02-23T00:32:32.462Z,67.76
2018-02-23T00:35:00.021Z,68.17
2018-02-23T00:37:27.563Z,68.00
2018-02-23T00:39:55.154Z,67.58
2018-02-23T00:42:22.694Z,67.44
2018-02-23T00:44:50.226Z,67.62
2018-02-23T00:47:17.814Z,67.35
2018-02-23T00:49:45.386Z,67.02
2018-02-23T00:52:12.928Z,67.31
2018-02-23T00:54:40.504Z,67.99
2018-02-23T00:57:08.083Z,68.27
2018-02-23T00:59:36.079Z,68.16
2018-02-23T01:02:03.622Z,67.70
2018-02-23T01:04:31.158Z,67.18
2018-02-23T01:06:58.753Z,66.74
2018-02-23T01:09:26.584Z,66.43
2018-02-23T01:11:54.175Z,66.20
2018-02-23T01:14:21.701Z,66.05
2018-02-23T01:16:49.282Z,65.93
2018-02-23T01:19:16.868Z,65.72
2018-02-23T01:21:44.415Z,65.59
2018-02-23T01:24:12.006Z,65.42
2018-02-23T01:26:39.538Z,65.25
2018-02-23T01:29:07.076Z,65.08
2018-02-23T01:31:35.043Z,64.82
2018-02-23T01:34:03.442Z,64.62
2018-02-23T01:36:30.979Z,64.67
2018-02-23T01:38:58.558Z,64.64
2018-02-23T01:41:26.478Z,64.54
2018-02-23T01:43:54.078Z,64.56
2018-02-23T01:46:21.628Z,64.41
2018-02-23T01:48:49.349Z,64.36
2018-02-23T01:51:16.940Z,64.28
2018-02-23T01:53:44.490Z,64.20
2018-02-23T01:56:12.084Z,64.07
2018-02-23T01:58:39.622Z,63.96
2018-02-23T02:01:07.214Z,63.91
2018-02-23T02:03:35.117Z,63.80
2018-02-23T02:06:02.658Z,63.82
2018-02-23T02:08:30.243Z,63.76
2018-02-23T02:10:57.796Z,63.60
2018-02-23T02:13:25.699Z,63.64
2018-02-23T02:15:53.238Z,63.57
2018-02-23T02:18:20.832Z,63.42
2018-02-23T02:20:48.369Z,63.38
2018-02-23T02:23:17.601Z,63.22
2018-02-23T02:25:45.195Z,63.24
2018-02-23T02:28:13.207Z,63.18
2018-02-23T02:30:40.792Z,63.02
2018-02-23T02:33:08.481Z,63.05
2018-02-23T02:35:36.062Z,63.11
2018-02-23T02:38:03.989Z,62.97
2018-02-23T02:40:31.603Z,63.06
2018-02-23T02:42:59.200Z,62.95
2018-02-23T02:45:26.762Z,62.86
2018-02-23T02:47:54.299Z,62.95
2018-02-23T02:50:21.888Z,63.01
2018-02-23T02:52:49.438Z,62.98
2018-02-23T02:55:17.046Z,63.02
2018-02-23T02:57:44.636Z,62.93
2018-02-23T03:00:12.180Z,62.91
2018-02-23T03:02:40.241Z,62.93
2018-02-23T03:05:07.787Z,62.92
2018-02-23T03:07:35.371Z,62.86
2018-02-23T03:10:02.965Z,62.83
2018-02-23T03:12:30.542Z,62.81
2018-02-23T03:14:58.091Z,62.73
2018-02-23T03:17:25.678Z,62.70
2018-02-23T03:19:53.224Z,62.65
2018-02-23T03:22:20.767Z,62.62
2018-02-23T03:24:48.342Z,62.51
2018-02-23T03:27:15.933Z,62.72
2018-02-23T03:29:43.480Z,62.76
2018-02-23T03:32:11.028Z,62.72
2018-02-23T03:34:38.598Z,62.65
2018-02-23T03:37:06.134Z,62.61
2018-02-23T03:39:33.727Z,62.78
2018-02-23T03:42:01.262Z,62.76
2018-02-23T03:44:28.844Z,62.66
2018-02-23T03:46:56.436Z,62.70
2018-02-23T03:49:24.511Z,62.54
2018-02-23T03:51:52.583Z,62.49
2018-02-23T03:54:20.140Z,62.43
2018-02-23T03:56:47.738Z,62.44
2018-02-23T03:59:15.278Z,62.51
2018-02-23T04:01:42.829Z,62.48
2018-02-23T04:04:10.618Z,62.34
2018-02-23T04:06:38.158Z,62.36
2018-02-23T04:09:05.740Z,62.34
2018-02-23T04:11:33.580Z,62.33
2018-02-23T04:14:01.175Z,62.16
2018-02-23T04:16:29.134Z,62.13
2018-02-23T04:18:56.710Z,62.18
2018-02-23T04:21:24.251Z,62.18
2018-02-23T04:23:51.843Z,62.16
2018-02-23T04:26:20.292Z,62.13
2018-02-23T04:28:47.866Z,62.15
2018-02-23T04:31:15.519Z,62.12
2018-02-23T04:33:43.660Z,62.01
2018-02-23T04:36:11.248Z,61.97
2018-02-23T04:38:38.786Z,61.95
2018-02-23T04:41:06.356Z,61.93
2018-02-23T04:43:33.892Z,61.91
2018-02-23T04:46:01.475Z,61.98
2018-02-23T04:48:29.014Z,61.90
2018-02-23T04:50:56.672Z,61.87
2018-02-23T04:53:24.214Z,61.89
2018-02-23T04:55:51.791Z,61.92
2018-02-23T04:58:19.623Z,61.86
2018-02-23T05:00:47.536Z,61.75
2018-02-23T05:03:15.079Z,61.84
2018-02-23T05:05:42.657Z,61.70
2018-02-23T05:08:10.252Z,61.83
2018-02-23T05:10:37.806Z,61.80
2018-02-23T05:13:05.351Z,61.95
2018-02-23T05:15:32.935Z,61.98
2018-02-23T05:18:01.207Z,61.96
2018-02-23T05:20:28.800Z,61.94
2018-02-23T05:22:56.369Z,61.95
2018-02-23T05:25:23.954Z,61.90
2018-02-23T05:27:51.491Z,61.88
2018-02-23T05:30:19.075Z,61.87
2018-02-23T05:32:46.631Z,61.97
2018-02-23T05:35:14.226Z,61.75
2018-02-23T05:37:41.780Z,61.69
2018-02-23T05:40:09.340Z,61.70
2018-02-23T05:42:36.926Z,61.67
2018-02-23T05:45:04.525Z,61.74
2018-02-23T05:47:32.069Z,61.60
2018-02-23T05:49:59.671Z,61.52
2018-02-23T05:52:27.221Z,61.17
2018-02-23T05:54:54.820Z,60.90
2018-02-23T05:57:22.597Z,60.87
2018-02-23T05:59:50.154Z,60.90
2018-02-23T06:02:17.752Z,60.64
2018-02-23T06:04:45.308Z,60.24
2018-02-23T06:07:12.890Z,59.78
2018-02-23T06:09:40.431Z,59.95
2018-02-23T06:12:08.240Z,60.01
2018-02-23T06:14:35.778Z,59.82
2018-02-23T06:17:03.340Z,59.68
2018-02-23T06:19:36.439Z,59.81
2018-02-23T06:22:04.039Z,59.57
2018-02-23T06:24:31.626Z,59.87
2018-02-23T06:26:59.207Z,59.62
2018-02-23T06:29:26.759Z,59.67
2018-02-23T06:31:54.346Z,59.30
2018-02-23T06:34:22.261Z,59.33
2018-02-23T06:36:49.813Z,59.40
2018-02-23T06:39:17.386Z,59.43
2018-02-23T06:41:45.044Z,59.63
2018-02-23T06:44:12.594Z,59.73
2018-02-23T06:46:40.172Z,59.85
2018-02-23T06:49:07.783Z,59.87
2018-02-23T06:51:35.345Z,59.71
2018-02-23T06:54:03.152Z,59.71
2018-02-23T06:56:30.923Z,59.55
2018-02-23T06:58:58.680Z,59.21
2018-02-23T07:01:26.258Z,59.02
2018-02-23T07:03:53.894Z,58.53
2018-02-23T07:06:21.488Z,58.56
2018-02-23T07:08:49.742Z,58.65
2018-02-23T07:11:17.292Z,58.78
2018-02-23T07:13:46.189Z,58.95
2018-02-23T07:16:13.743Z,58.83
2018-02-23T07:18:42.322Z,58.89
2018-02-23T07:21:09.924Z,58.89
2018-02-23T07:23:37.798Z,58.79
2018-02-23T07:26:05.466Z,58.76
2018-02-23T07:28:33.247Z,58.63
2018-02-23T07:31:00.857Z,58.63
2018-02-23T07:33:28.458Z,58.52
2018-02-23T07:35:56.032Z,58.47
2018-02-23T07:38:23.593Z,58.51
2018-02-23T07:40:51.198Z,58.48
2018-02-23T07:43:18.756Z,58.34
2018-02-23T07:45:46.306Z,58.47
2018-02-23T07:48:13.915Z,58.35
2018-02-23T07:50:41.501Z,58.38
2018-02-23T07:53:09.070Z,58.34
2018-02-23T07:55:36.655Z,58.24
2018-02-23T07:58:04.208Z,58.54
2018-02-23T08:00:31.928Z,58.44
2018-02-23T08:02:59.535Z,58.10
2018-02-23T08:05:27.140Z,57.88
2018-02-23T08:07:54.751Z,58.00
2018-02-23T08:10:22.348Z,58.26
2018-02-23T08:12:49.896Z,58.30
2018-02-23T08:15:17.499Z,58.62
2018-02-23T08:17:45.058Z,58.22
2018-02-23T08:20:12.601Z,58.12
2018-02-23T08:22:40.197Z,58.19
2018-02-23T08:25:07.738Z,57.86
2018-02-23T08:27:35.627Z,57.99
2018-02-23T08:30:03.215Z,58.03
2018-02-23T08:32:30.766Z,57.73
2018-02-23T08:34:58.359Z,57.46
2018-02-23T08:37:25.904Z,57.31
2018-02-23T08:39:53.629Z,57.41
2018-02-23T08:42:21.300Z,57.33
2018-02-23T08:44:49.806Z,57.59
2018-02-23T08:47:17.346Z,57.48
2018-02-23T08:49:44.935Z,57.68
2018-02-23T08:52:12.512Z,57.65
2018-02-23T08:54:40.108Z,57.64
2018-02-23T08:57:07.646Z,57.60
2018-02-23T08:59:35.296Z,57.71
2018-02-23T09:02:02.903Z,57.75
2018-02-23T09:04:30.512Z,57.24
2018-02-23T09:06:58.102Z,57.02
2018-02-23T09:09:25.651Z,56.90
2018-02-23T09:11:53.243Z,56.39
2018-02-23T09:14:20.783Z,56.81
2018-02-23T09:16:48.350Z,56.75
2018-02-23T09:19:15.952Z,56.43
2018-02-23T09:21:43.536Z,56.23
2018-02-23T09:24:11.131Z,56.43
2018-02-23T09:26:38.730Z,56.82
2018-02-23T09:29:06.279Z,56.54
2018-02-23T09:31:34.663Z,56.61
2018-02-23T09:37:17.177Z,56.93
2018-02-23T09:39:44.781Z,56.80
2018-02-23T09:42:12.394Z,56.76
2018-02-23T09:44:39.996Z,56.42
2018-02-23T09:47:07.567Z,56.50
2018-02-23T09:49:35.212Z,56.40
2018-02-23T09:52:02.811Z,56.49
2018-02-23T09:54:31.339Z,56.42
2018-02-23T09:56:58.932Z,56.42
2018-02-23T09:59:26.492Z,56.23
2018-02-23T10:01:56.552Z,56.32
2018-02-23T10:04:24.111Z,56.52
2018-02-23T10:06:51.848Z,56.35
2018-02-23T10:09:19.399Z,56.03
2018-02-23T10:11:47.013Z,55.76
2018-02-23T10:14:14.603Z,55.81
2018-02-23T10:16:42.204Z,55.99
2018-02-23T10:19:09.808Z,56.02
2018-02-23T10:21:37.359Z,56.05
2018-02-23T10:24:04.967Z,56.10
2018-02-23T10:26:32.544Z,55.93
2018-02-23T10:29:00.088Z,56.17
2018-02-23T10:31:27.674Z,56.10
2018-02-23T10:33:55.225Z,56.27
2018-02-23T10:36:25.261Z,56.45
2018-02-23T10:38:52.912Z,56.44
2018-02-23T10:41:20.491Z,56.18
2018-02-23T10:43:48.904Z,56.38
2018-02-23T10:46:16.547Z,56.52
2018-02-23T10:48:44.131Z,56.52
2018-02-23T10:51:11.768Z,56.69
2018-02-23T10:53:39.359Z,56.93
2018-02-23T10:56:06.976Z,56.75
2018-02-23T10:58:34.548Z,56.27
2018-02-23T11:01:02.098Z,55.99
2018-02-23T11:03:29.671Z,55.90
2018-02-23T11:05:57.255Z,56.03
2018-02-23T11:08:24.804Z,56.36
2018-02-23T11:10:52.418Z,56.53
2018-02-23T11:13:20.068Z,56.58
2018-02-23T11:15:48.461Z,56.43
2018-02-23T11:18:16.076Z,56.22
2018-02-23T11:20:43.679Z,56.34
2018-02-23T11:23:11.248Z,56.36
2018-02-23T11:25:38.865Z,56.45
2018-02-23T11:28:06.407Z,56.64
2018-02-23T11:30:33.960Z,56.63
2018-02-23T11:33:01.559Z,56.74
2018-02-23T11:35:29.090Z,56.70
2018-02-23T11:37:56.748Z,56.70
2018-02-23T11:40:24.303Z,56.86
2018-02-23T11:42:51.903Z,56.90
2018-02-23T11:45:19.447Z,56.83
2018-02-23T11:47:46.995Z,56.43
2018-02-23T11:50:14.581Z,56.44
2018-02-23T11:52:42.144Z,56.52
2018-02-23T11:55:09.800Z,56.64
2018-02-23T11:57:42.886Z,56.70
2018-02-23T12:00:10.486Z,56.66
2018-02-23T12:02:38.043Z,56.41
2018-02-23T12:05:05.622Z,56.23
2018-02-23T12:07:33.185Z,56.29
2018-02-23T12:10:00.762Z,56.31
2018-02-23T12:12:30.204Z,56.36
2018-02-23T12:14:57.781Z,56.38
2018-02-23T12:17:25.334Z,56.42
2018-02-23T12:19:52.951Z,56.08
2018-02-23T12:22:20.530Z,56.00
2018-02-23T12:24:48.096Z,55.65
2018-02-23T12:27:15.682Z,55.85
2018-02-23T12:29:43.222Z,55.88
2018-02-23T12:32:10.838Z,55.65
2018-02-23T12:34:38.415Z,55.54
2018-02-23T12:37:06.027Z,55.69
2018-02-23T12:39:34.290Z,55.77
2018-02-23T12:42:01.845Z,55.71
2018-02-23T12:44:29.438Z,55.60
2018-02-23T12:46:57.026Z,55.93
2018-02-23T12:49:24.618Z,55.83
2018-02-23T12:51:52.240Z,55.74
2018-02-23T12:54:19.791Z,55.85
2018-02-23T12:56:47.547Z,55.96
2018-02-23T12:59:15.092Z,56.32
2018-02-23T13:01:42.691Z,56.47
2018-02-23T13:04:10.297Z,56.10
2018-02-23T13:06:37.920Z,55.99
2018-02-23T13:09:05.932Z,56.00
2018-02-23T13:11:33.519Z,56.26
2018-02-23T13:14:01.463Z,56.56
2018-02-23T13:16:30.121Z,56.73
2018-02-23T13:18:57.729Z,56.70
2018-02-23T13:21:25.608Z,56.86
2018-02-23T13:23:53.152Z,57.00
2018-02-23T13:26:20.690Z,56.88
2018-02-23T13:28:48.327Z,56.68
2018-02-23T13:31:15.940Z,56.75
2018-02-23T13:33:43.567Z,56.70
2018-02-23T13:36:11.185Z,56.76
2018-02-23T13:38:38.726Z,56.81
2018-02-23T13:41:11.855Z,56.93
2018-02-23T13:43:39.436Z,57.02
2018-02-23T13:46:07.058Z,56.95
2018-02-23T13:48:34.628Z,56.58
2018-02-23T13:51:02.196Z,56.64
2018-02-23T13:53:35.415Z,56.33
2018-02-23T13:56:03.028Z,56.17
2018-02-23T13:58:30.568Z,56.07
2018-02-23T14:00:58.144Z,56.05
2018-02-23T14:03:25.684Z,55.93
2018-02-23T14:05:54.051Z,56.14
2018-02-23T14:08:21.638Z,56.51
2018-02-23T14:10:49.179Z,56.84
2018-02-23T14:13:16.839Z,56.92
2018-02-23T14:15:44.464Z,56.69
2018-02-23T14:18:12.072Z,56.63
2018-02-23T14:20:39.671Z,56.72
2018-02-23T14:23:07.234Z,56.63
2018-02-23T14:25:34.881Z,56.35
2018-02-23T14:28:02.575Z,56.50
2018-02-23T14:30:30.184Z,56.40
2018-02-23T14:32:57.803Z,56.64
2018-02-23T14:35:25.407Z,57.03
2018-02-23T14:37:53.367Z,56.84
2018-02-23T14:40:20.972Z,56.64
2018-02-23T14:42:49.460Z,56.43
2018-02-23T14:45:17.051Z,56.57
2018-02-23T14:47:44.671Z,56.59
2018-02-23T14:50:24.676Z,56.42
2018-02-23T14:52:52.495Z,56.51
2018-02-23T14:55:20.048Z,56.31
2018-02-23T14:57:47.623Z,56.07
2018-02-23T15:00:15.202Z,56.15
2018-02-23T15:02:42.782Z,56.30
2018-02-23T15:05:10.323Z,56.29
2018-02-23T15:07:37.915Z,56.34
2018-02-23T15:10:06.418Z,56.22
2018-02-23T15:12:33.976Z,56.18
2018-02-23T15:15:01.611Z,56.42
2018-02-23T15:17:29.146Z,56.76
2018-02-23T15:19:56.744Z,57.04
2018-02-23T15:22:24.360Z,57.10
2018-02-23T15:24:51.939Z,56.97
2018-02-23T15:27:19.473Z,56.96
2018-02-23T15:29:47.090Z,56.61
2018-02-23T15:32:29.334Z,56.73
2018-02-23T15:34:57.974Z,57.07
2018-02-23T15:37:25.580Z,57.38
2018-02-23T15:39:53.354Z,57.58
2018-02-23T15:42:21.738Z,57.76
2018-02-23T15:44:49.297Z,57.92
2018-02-23T15:47:16.950Z,58.00
2018-02-23T15:49:50.008Z,58.19
2018-02-23T15:52:17.668Z,58.28
2018-02-23T15:54:45.268Z,58.45
2018-02-23T15:57:18.333Z,58.34
2018-02-23T15:59:46.021Z,58.03
2018-02-23T16:02:13.814Z,57.85
2018-02-23T16:04:41.428Z,57.49
2018-02-23T16:07:09.660Z,57.28
2018-02-23T16:09:37.265Z,57.36
2018-02-23T16:12:04.863Z,57.68
2018-02-23T16:14:32.477Z,57.87
2018-02-23T16:17:00.360Z,57.85
2018-02-23T16:19:27.996Z,58.10
2018-02-23T16:21:56.975Z,58.13
2018-02-23T16:24:24.566Z,58.16
2018-02-23T16:26:52.176Z,58.19
2018-02-23T16:29:19.867Z,58.12
2018-02-23T16:31:47.520Z,58.09
2018-02-23T16:34:15.122Z,57.86
2018-02-23T16:36:43.777Z,57.67
2018-02-23T16:39:11.399Z,57.37
2018-02-23T16:41:38.948Z,57.46
2018-02-23T16:44:06.731Z,57.50
2018-02-23T16:46:35.170Z,57.68
2018-02-23T16:49:03.354Z,57.75
2018-02-23T16:51:30.942Z,57.85
2018-02-23T16:53:58.498Z,57.73
2018-02-23T16:56:26.179Z,57.74
2018-02-23T16:58:54.784Z,57.90
2018-02-23T17:01:22.403Z,58.15
2018-02-23T17:03:50.002Z,58.34
2018-02-23T17:06:18.147Z,58.09
2018-02-23T17:08:47.089Z,58.25
2018-02-23T17:11:14.689Z,58.31
2018-02-23T17:13:43.198Z,58.18
2018-02-23T17:16:10.769Z,57.95
2018-02-23T17:18:38.344Z,57.84
2018-02-23T17:21:06.130Z,57.89
2018-02-23T17:23:33.681Z,57.80
2018-02-23T17:26:01.269Z,57.70
2018-02-23T17:28:28.961Z,58.13
2018-02-23T17:30:56.619Z,58.09
2018-02-23T17:33:24.186Z,58.14
2018-02-23T17:35:51.771Z,58.13
2018-02-23T17:38:19.361Z,57.95
2018-02-23T17:40:47.705Z,58.11
2018-02-23T17:43:15.285Z,58.18
2018-02-23T17:45:42.840Z,57.92
2018-02-23T17:48:10.444Z,58.07
2018-02-23T17:50:39.099Z,58.34
2018-02-23T17:53:08.446Z,58.66
2018-02-23T17:55:36.055Z,58.95
2018-02-23T17:58:03.644Z,59.15
2018-02-23T18:00:31.231Z,59.48
2018-02-23T18:02:58.788Z,59.68
2018-02-23T18:05:27.197Z,59.77
2018-02-23T18:07:54.792Z,59.86
2018-02-23T18:10:22.406Z,59.97
2018-02-23T18:12:49.983Z,60.08
2018-02-23T18:15:18.243Z,60.16
2018-02-23T18:17:45.836Z,60.21
2018-02-23T18:20:14.194Z,60.25
2018-02-23T18:22:41.737Z,60.26
2018-02-23T18:25:10.218Z,60.25
2018-02-23T18:27:37.848Z,60.24
2018-02-23T18:30:05.399Z,60.27
2018-02-23T18:32:33.068Z,60.31
2018-02-23T18:35:00.835Z,60.35
2018-02-23T18:37:28.387Z,60.52
2018-02-23T18:39:56.012Z,60.74
2018-02-23T18:42:23.635Z,60.95
2018-02-23T18:44:51.215Z,60.93
2018-02-23T18:47:18.877Z,60.89
2018-02-23T18:49:46.472Z,60.87
2018-02-23T18:52:14.007Z,60.79
2018-02-23T18:54:41.555Z,60.76
2018-02-23T18:57:09.139Z,60.75
2018-02-23T18:59:36.786Z,60.74
2018-02-23T19:02:04.322Z,60.74
2018-02-23T19:04:31.990Z,60.75
2018-02-23T19:07:00.523Z,60.74
2018-02-23T19:09:28.312Z,60.73
2018-02-23T19:11:55.912Z,60.74
2018-02-23T19:14:23.543Z,60.72
2018-02-23T19:16:52.084Z,60.71
2018-02-23T19:19:19.690Z,60.76
2018-02-23T19:21:47.332Z,60.84
2018-02-23T19:24:14.988Z,60.81
2018-02-23T19:26:42.796Z,60.82
2018-02-23T19:29:10.534Z,61.00
2018-02-23T19:31:38.227Z,61.00
2018-02-23T19:34:05.780Z,61.01
2018-02-23T19:36:33.369Z,61.00
2018-02-23T19:39:01.061Z,60.98
2018-02-23T19:41:28.767Z,60.94
2018-02-23T19:43:56.378Z,60.91
2018-02-23T19:46:26.384Z,60.86
2018-02-23T19:48:54.259Z,60.89
2018-02-23T19:51:21.879Z,60.86
2018-02-23T19:53:50.026Z,60.84
2018-02-23T19:56:18.565Z,60.87
2018-02-23T19:58:46.272Z,60.79
2018-02-23T20:01:15.892Z,60.79
2018-02-23T20:03:43.488Z,60.73
2018-02-23T20:06:11.049Z,60.79
2018-02-23T20:08:39.400Z,60.87
2018-02-23T20:11:07.008Z,60.95
2018-02-23T20:13:35.368Z,60.94
2018-02-23T20:16:02.898Z,61.12
2018-02-23T20:18:30.485Z,61.20
2018-02-23T20:20:58.098Z,61.15
2018-02-23T20:23:25.637Z,61.12
2018-02-23T20:25:54.151Z,61.07
2018-02-23T20:28:22.399Z,61.08
2018-02-23T20:30:49.953Z,61.02
2018-02-23T20:33:17.664Z,60.98
2018-02-23T20:35:45.255Z,60.90
2018-02-23T20:38:12.850Z,60.87
2018-02-23T20:40:40.470Z,60.84
2018-02-23T20:43:08.093Z,60.83
2018-02-23T20:45:35.712Z,60.83
2018-02-23T20:48:03.356Z,60.79
2018-02-23T20:50:30.922Z,60.86
2018-02-23T20:52:58.458Z,60.88
2018-02-23T20:55:26.399Z,60.83
2018-02-23T20:57:54.022Z,60.79
2018-02-23T21:00:21.778Z,60.79
2018-02-23T21:02:49.332Z,60.79
2018-02-23T21:05:17.747Z,60.77
2018-02-23T21:07:45.299Z,60.74
2018-02-23T21:10:12.938Z,60.71
2018-02-23T21:12:40.459Z,60.70
2018-02-23T21:15:08.043Z,60.71
2018-02-23T21:17:35.644Z,60.53
2018-02-23T21:20:03.245Z,60.57
2018-02-23T21:22:30.929Z,60.60
2018-02-23T21:24:58.525Z,60.61
2018-02-23T21:27:26.128Z,60.59
2018-02-23T21:29:53.674Z,60.56
2018-02-23T21:32:21.243Z,60.57
2018-02-23T21:34:48.948Z,60.57
2018-02-23T21:37:17.366Z,60.58
2018-02-23T21:39:45.954Z,60.51
2018-02-23T21:42:13.723Z,60.54
2018-02-23T21:44:47.103Z,60.47
2018-02-23T21:47:14.724Z,60.47
2018-02-23T21:49:43.066Z,60.49
2018-02-23T21:52:10.646Z,60.49
2018-02-23T21:54:38.236Z,60.44
2018-02-23T21:57:05.803Z,60.38
2018-02-23T21:59:33.376Z,60.38
2018-02-23T22:02:00.975Z,60.37
2018-02-23T22:04:28.575Z,60.38
2018-02-23T22:06:56.110Z,60.38
2018-02-23T22:09:23.690Z,60.39
2018-02-23T22:11:51.293Z,60.40
2018-02-23T22:14:18.888Z,60.38
2018-02-23T22:16:46.436Z,60.43
2018-02-23T22:19:14.742Z,60.37
2018-02-23T22:21:42.296Z,60.41
2018-02-23T22:24:09.916Z,60.43
2018-02-23T22:26:37.455Z,60.32
2018-02-23T22:29:05.064Z,60.38
2018-02-23T22:31:32.602Z,60.44
2018-02-23T22:34:01.116Z,60.40
2018-02-23T22:36:28.698Z,60.45
2018-02-23T22:38:56.343Z,60.53
2018-02-23T22:41:23.923Z,60.62
2018-02-23T22:43:51.481Z,60.68
2018-02-23T22:46:19.075Z,60.68
2018-02-23T22:48:47.410Z,60.79
2018-02-23T22:51:14.959Z,60.96
2018-02-23T22:53:42.612Z,60.95
2018-02-23T22:56:10.172Z,61.06
2018-02-23T22:58:37.828Z,60.94
2018-02-23T23:01:05.415Z,61.18
2018-02-23T23:03:33.020Z,61.29
2018-02-23T23:06:00.558Z,61.28
2018-02-23T23:08:28.227Z,61.51
2018-02-23T23:10:55.766Z,61.50
2018-02-23T23:13:23.345Z,61.41
2018-02-23T23:15:50.919Z,61.36
2018-02-23T23:18:18.515Z,61.51
2018-02-23T23:20:46.880Z,61.47
2018-02-23T23:23:14.470Z,61.37
2018-02-23T23:25:43.877Z,61.32
2018-02-23T23:28:11.430Z,61.41
2018-02-23T23:30:39.084Z,61.50
2018-02-23T23:33:06.642Z,61.62
2018-02-23T23:35:34.188Z,61.73
2018-02-23T23:38:01.758Z,61.81
2018-02-23T23:40:29.409Z,61.73
2018-02-23T23:42:56.992Z,61.73
2018-02-23T23:45:24.539Z,61.91
2018-02-23T23:47:52.134Z,62.12
2018-02-23T23:50:20.495Z,62.10
2018-02-23T23:52:48.096Z,62.09
2018-02-23T23:55:15.680Z,61.94
2018-02-23T23:57:43.219Z,61.78
